Time;durP1;ratioP1;P1;durP2;ratioP2;P2;SDS_P1;SDS_P2;PMS_P1;PMS_P2;Temp;Humidity;BMP_temperature;BMP_pressure;BME280_temperature;BME280_humidity;BME280_pressure;Samples;Min_cycle;Max_cycle;Signal;HPM_P1;HPM_P2
2024/01/15 00:02:03;;;;;;;26.60;12.23;;;;;;;4.02;44.82;96394.66;5055483;28;20544;-68
2024/01/15 00:04:28;;;;;;;26.00;12.90;;;;;;;4.04;44.32;96390.97;5063252;28;20198;-69
2024/01/15 00:06:54;;;;;;;20.97;10.97;;;;;;;4.00;44.84;96393.00;5056867;28;20424;-68
2024/01/15 00:09:19;;;;;;;24.70;12.20;;;;;;;4.11;44.55;96393.84;5052591;28;20207;-69
2024/01/15 00:11:44;;;;;;;24.10;11.40;;;;;;;4.05;44.75;96384.03;5053626;28;20187;-69
2024/01/15 00:14:10;;;;;;;25.73;11.23;;;;;;;4.14;44.69;96391.00;5051807;28;20215;-69
2024/01/15 00:16:35;;;;;;;21.80;10.40;;;;;;;4.15;44.70;96390.91;5036352;28;20238;-69
2024/01/15 00:19:01;;;;;;;24.60;11.87;;;;;;;4.24;44.74;96391.84;5033567;28;20306;-68
2024/01/15 00:21:27;;;;;;;20.87;11.00;;;;;;;4.25;44.90;96390.91;5044614;28;20175;-68
2024/01/15 00:23:53;;;;;;;21.90;10.90;;;;;;;4.20;44.23;96384.47;5037708;28;20211;-67
2024/01/15 00:26:19;;;;;;;22.33;10.30;;;;;;;4.17;45.29;96374.34;5048288;28;20433;-70
2024/01/15 00:28:44;;;;;;;21.43;10.20;;;;;;;4.17;45.20;96371.75;5044869;28;20218;-67
2024/01/15 00:31:09;;;;;;;21.17;10.50;;;;;;;4.12;44.86;96373.00;5049238;28;20180;-66
2024/01/15 00:33:35;;;;;;;20.83;10.40;;;;;;;4.08;45.24;96373.41;5042353;28;20172;-69
2024/01/15 00:36:00;;;;;;;19.53;9.63;;;;;;;3.97;45.50;96369.13;5041352;28;20180;-68
2024/01/15 00:38:26;;;;;;;21.53;10.17;;;;;;;3.82;45.93;96366.88;5030641;28;20607;-69
2024/01/15 00:40:51;;;;;;;19.53;10.57;;;;;;;3.80;45.46;96366.19;5040802;28;20183;-67
2024/01/15 00:43:20;;;;;;;18.83;9.20;;;;;;;3.84;45.75;96366.78;5049322;28;20207;-67
2024/01/15 00:45:45;;;;;;;20.53;10.20;;;;;;;3.73;45.72;96367.66;5044760;28;20783;-67
2024/01/15 00:48:10;;;;;;;17.97;9.40;;;;;;;3.71;46.42;96372.16;5040458;28;20443;-68
2024/01/15 00:50:36;;;;;;;20.27;10.40;;;;;;;3.76;46.58;96364.00;5043341;28;20188;-68
2024/01/15 00:53:01;;;;;;;20.70;9.67;;;;;;;3.72;46.42;96371.22;5046823;28;20249;-69
2024/01/15 00:55:28;;;;;;;19.00;9.40;;;;;;;3.72;46.51;96373.81;5029421;28;20286;-68
2024/01/15 00:57:54;;;;;;;21.50;10.97;;;;;;;3.67;46.91;96365.59;5050006;28;20242;-69
2024/01/15 01:00:19;;;;;;;24.20;10.20;;;;;;;3.68;46.59;96375.00;5050177;28;21191;-67
2024/01/15 01:02:45;;;;;;;22.13;9.90;;;;;;;3.67;47.38;96370.75;5042233;28;20501;-66
2024/01/15 01:05:10;;;;;;;22.13;10.80;;;;;;;3.69;46.84;96367.13;5047728;28;20777;-68
2024/01/15 01:07:36;;;;;;;20.87;9.67;;;;;;;3.77;47.51;96371.66;5047970;28;20221;-68
2024/01/15 01:10:01;;;;;;;19.43;10.03;;;;;;;3.82;46.82;96382.44;5047665;28;20219;-68
2024/01/15 01:12:27;;;;;;;22.00;10.27;;;;;;;3.88;46.93;96375.09;5048482;28;20183;-70
2024/01/15 01:14:52;;;;;;;24.57;8.77;;;;;;;3.90;46.76;96366.22;5048859;28;20551;-69
2024/01/15 01:17:18;;;;;;;22.27;10.07;;;;;;;3.87;46.66;96368.28;5049452;28;20696;-68
2024/01/15 01:19:43;;;;;;;20.77;10.03;;;;;;;3.89;47.56;96366.38;5049232;28;20207;-71
2024/01/15 01:22:09;;;;;;;21.93;9.93;;;;;;;3.95;47.68;96358.91;5061273;28;20277;-68
2024/01/15 01:24:34;;;;;;;21.60;10.20;;;;;;;3.93;46.66;96362.53;5048387;28;20207;-69
2024/01/15 01:27:01;;;;;;;18.13;8.90;;;;;;;3.96;46.91;96359.69;5052674;28;20418;-70
2024/01/15 01:29:26;;;;;;;23.20;10.17;;;;;;;4.01;46.68;96354.94;5047797;28;20528;-69
2024/01/15 01:31:52;;;;;;;22.13;10.00;;;;;;;4.08;47.35;96363.84;5033772;28;20648;-70
2024/01/15 01:34:17;;;;;;;21.00;9.57;;;;;;;4.06;47.53;96359.75;5053551;28;20266;-69
2024/01/15 01:36:43;;;;;;;19.03;9.20;;;;;;;4.04;47.11;96357.25;5049594;28;20187;-69
2024/01/15 01:39:09;;;;;;;18.90;10.10;;;;;;;3.99;47.20;96359.44;5032735;28;20207;-69
2024/01/15 01:41:34;;;;;;;19.37;9.70;;;;;;;3.93;47.61;96370.31;5049727;28;20195;-69
2024/01/15 01:44:00;;;;;;;21.27;10.00;;;;;;;3.98;47.64;96370.75;5045661;28;20295;-69
2024/01/15 01:46:27;;;;;;;18.93;9.70;;;;;;;4.03;47.05;96358.25;5032730;28;20191;-69
2024/01/15 01:48:52;;;;;;;19.83;9.20;;;;;;;3.98;47.37;96360.41;5049947;28;20207;-68
2024/01/15 01:51:19;;;;;;;19.30;9.80;;;;;;;3.95;46.91;96365.84;5018025;28;20429;-68
2024/01/15 01:53:45;;;;;;;24.17;10.37;;;;;;;3.99;47.66;96357.66;5035009;28;20253;-69
2024/01/15 01:56:11;;;;;;;21.10;8.80;;;;;;;3.98;47.23;96358.59;5046323;28;20969;-69
2024/01/15 01:58:37;;;;;;;20.17;9.90;;;;;;;3.94;47.70;96367.63;5042910;28;20481;-68
2024/01/15 02:01:02;;;;;;;20.40;9.73;;;;;;;3.91;47.48;96352.31;5050318;28;20499;-68
2024/01/15 02:03:29;;;;;;;21.57;9.37;;;;;;;3.89;47.77;96356.00;5051454;28;20203;-69
2024/01/15 02:05:55;;;;;;;17.37;9.20;;;;;;;3.62;47.97;96362.56;5056636;28;20183;-68
2024/01/15 02:08:20;;;;;;;20.03;9.43;;;;;;;3.78;48.12;96359.50;5040744;28;20437;-67
2024/01/15 02:10:46;;;;;;;18.97;9.23;;;;;;;3.74;47.54;96366.72;5050295;28;20214;-68
2024/01/15 02:13:11;;;;;;;19.50;8.73;;;;;;;3.70;47.95;96365.34;5048551;28;20290;-67
2024/01/15 02:15:37;;;;;;;18.57;9.67;;;;;;;3.69;48.11;96369.72;5056437;28;20198;-69
2024/01/15 02:18:09;;;;;;;19.33;8.87;;;;;;;3.75;48.41;96355.41;5051245;28;20213;-68
2024/01/15 02:20:35;;;;;;;15.63;8.37;;;;;;;3.83;47.79;96365.94;5044494;28;20179;-68
2024/01/15 02:23:14;;;;;;;19.20;9.37;;;;;;;3.87;47.66;96352.72;5037196;28;20536;-68
2024/01/15 02:25:44;;;;;;;22.13;9.83;;;;;;;3.87;48.25;96347.53;5043189;28;20183;-69
2024/01/15 02:28:11;;;;;;;19.73;9.13;;;;;;;3.82;47.47;96351.31;5048696;28;20441;-67
2024/01/15 02:30:41;;;;;;;18.50;9.00;;;;;;;3.76;48.28;96340.66;5052455;28;20530;-68
2024/01/15 02:33:07;;;;;;;18.10;9.33;;;;;;;3.78;48.27;96342.16;5042271;28;20459;-68
2024/01/15 02:35:33;;;;;;;19.07;8.97;;;;;;;3.88;47.65;96344.00;5055390;28;20432;-70
2024/01/15 02:37:58;;;;;;;19.60;9.50;;;;;;;3.81;47.49;96338.50;5041849;28;20445;-70
2024/01/15 02:40:23;;;;;;;18.97;9.20;;;;;;;3.82;47.50;96345.34;5042313;28;20187;-70
2024/01/15 02:42:49;;;;;;;17.43;9.17;;;;;;;3.90;48.07;96342.91;5040915;28;20180;-69
2024/01/15 02:45:14;;;;;;;17.43;9.10;;;;;;;3.80;48.14;96342.84;5039203;28;20266;-70
2024/01/15 02:47:40;;;;;;;20.10;8.70;;;;;;;3.80;47.75;96342.84;5039105;28;20189;-68
2024/01/15 02:50:06;;;;;;;19.90;9.33;;;;;;;3.92;48.19;96340.16;5003141;28;20680;-69
2024/01/15 02:52:31;;;;;;;20.30;9.53;;;;;;;3.84;47.63;96333.88;5045947;28;20175;-71
2024/01/15 02:54:57;;;;;;;17.70;8.67;;;;;;;3.88;47.77;96334.44;5052438;28;20304;-70
2024/01/15 02:57:22;;;;;;;16.87;8.50;;;;;;;3.97;47.64;96341.41;5051729;28;20225;-68
2024/01/15 02:59:48;;;;;;;18.33;8.93;;;;;;;3.97;47.13;96331.03;5039624;28;20618;-69
2024/01/15 03:02:13;;;;;;;22.03;9.43;;;;;;;4.01;47.55;96339.41;5036993;28;20187;-69
2024/01/15 03:04:43;;;;;;;20.33;8.70;;;;;;;3.96;47.24;96328.59;5056599;28;20207;-70
2024/01/15 03:07:08;;;;;;;18.37;8.73;;;;;;;4.00;47.63;96329.97;5039053;28;20206;-68
2024/01/15 03:09:34;;;;;;;20.83;9.50;;;;;;;3.90;48.08;96318.75;5051567;28;21001;-70
2024/01/15 03:11:59;;;;;;;16.60;8.73;;;;;;;3.94;48.00;96328.72;5043085;28;20624;-68
2024/01/15 03:14:26;;;;;;;20.27;8.97;;;;;;;3.97;47.90;96318.06;5055579;28;20623;-70
2024/01/15 03:16:52;;;;;;;21.00;8.60;;;;;;;3.97;47.83;96318.06;5052032;28;20199;-72
2024/01/15 03:19:17;;;;;;;20.47;8.80;;;;;;;3.98;47.38;96324.09;5051481;28;20445;-69
2024/01/15 03:21:42;;;;;;;20.60;9.90;;;;;;;4.01;47.58;96321.25;5055905;28;20532;-69
2024/01/15 03:24:08;;;;;;;17.27;9.00;;;;;;;3.95;47.75;96329.53;5056540;28;20249;-68
2024/01/15 03:26:33;;;;;;;17.70;8.90;;;;;;;3.97;47.85;96327.63;5050531;28;20226;-69
2024/01/15 03:28:59;;;;;;;19.33;8.37;;;;;;;4.00;47.35;96327.38;5062255;28;20230;-68
2024/01/15 03:31:24;;;;;;;16.33;8.43;;;;;;;3.90;47.79;96326.53;5053221;28;20187;-68
2024/01/15 03:33:50;;;;;;;19.83;9.47;;;;;;;3.95;47.52;96324.34;5055924;28;20255;-71
2024/01/15 03:36:15;;;;;;;17.93;8.60;;;;;;;3.90;48.07;96321.34;5051972;28;20213;-70
2024/01/15 03:38:41;;;;;;;17.40;8.43;;;;;;;3.83;48.24;96316.69;5058224;28;20281;-69
2024/01/15 03:41:07;;;;;;;18.60;8.70;;;;;;;3.82;48.91;96317.63;5044331;28;20593;-69
2024/01/15 03:43:33;;;;;;;26.30;9.37;;;;;;;3.87;48.36;96311.25;5038976;28;20474;-68
2024/01/15 03:45:58;;;;;;;16.63;8.57;;;;;;;3.83;48.55;96308.91;5038560;28;20434;-68
2024/01/15 03:48:23;;;;;;;16.73;8.60;;;;;;;3.90;47.89;96308.38;5050063;28;20202;-68
2024/01/15 03:50:49;;;;;;;17.93;9.07;;;;;;;3.86;49.03;96302.63;5052075;28;20175;-68
2024/01/15 03:53:14;;;;;;;16.17;9.07;;;;;;;3.93;48.15;96302.91;5052109;28;20210;-69
2024/01/15 03:55:40;;;;;;;20.00;8.77;;;;;;;4.04;48.11;96307.19;5056771;28;20186;-68
2024/01/15 03:58:05;;;;;;;18.40;9.20;;;;;;;4.03;48.14;96306.38;5044780;28;20207;-69
2024/01/15 04:00:31;;;;;;;18.43;9.20;;;;;;;3.97;47.84;96301.72;5053593;28;20765;-70
2024/01/15 04:02:56;;;;;;;19.53;8.90;;;;;;;4.03;48.54;96303.78;5042272;28;20273;-68
2024/01/15 04:05:21;;;;;;;19.33;8.83;;;;;;;4.10;48.07;96301.44;5042420;28;20183;-69
2024/01/15 04:07:47;;;;;;;16.80;8.07;;;;;;;4.10;48.02;96304.88;5034692;28;20218;-68
2024/01/15 04:10:12;;;;;;;17.17;7.70;;;;;;;4.15;48.27;96294.94;5053987;28;21661;-69
2024/01/15 04:12:38;;;;;;;16.10;7.87;;;;;;;4.00;48.53;96306.63;5037043;28;20190;-68
2024/01/15 04:15:04;;;;;;;13.87;7.73;;;;;;;4.06;48.46;96298.31;5044065;28;20214;-69
2024/01/15 04:17:29;;;;;;;18.53;8.80;;;;;;;4.11;48.20;96292.72;5037990;28;20194;-71
2024/01/15 04:19:55;;;;;;;14.40;8.27;;;;;;;4.09;47.92;96287.69;5043774;28;20226;-69
2024/01/15 04:22:20;;;;;;;17.13;8.30;;;;;;;4.20;48.19;96296.28;5049886;28;20241;-69
2024/01/15 04:24:45;;;;;;;16.50;7.87;;;;;;;4.25;48.13;96286.34;5044446;28;20207;-70
2024/01/15 04:27:11;;;;;;;15.07;8.00;;;;;;;4.26;48.37;96295.75;5051427;28;20187;-71
2024/01/15 04:29:39;;;;;;;17.77;8.27;;;;;;;4.28;48.25;96284.28;5056724;28;20207;-69
2024/01/15 04:32:04;;;;;;;19.67;9.70;;;;;;;4.20;48.15;96284.16;5049584;28;20230;-69
2024/01/15 04:34:29;;;;;;;17.03;7.80;;;;;;;4.28;47.94;96288.66;5057358;28;20441;-68
2024/01/15 04:36:55;;;;;;;15.07;8.10;;;;;;;4.35;47.99;96283.75;5049997;28;20266;-68
2024/01/15 04:39:22;;;;;;;16.77;8.83;;;;;;;4.43;47.83;96286.47;5021627;28;20199;-70
2024/01/15 04:41:47;;;;;;;18.10;8.70;;;;;;;4.23;48.17;96301.22;5053984;28;20179;-69
2024/01/15 04:44:13;;;;;;;18.03;8.53;;;;;;;4.26;48.48;96293.16;5039614;28;20513;-69
2024/01/15 04:46:38;;;;;;;16.10;8.20;;;;;;;4.07;48.80;96286.19;5048890;28;20277;-68
2024/01/15 04:49:03;;;;;;;15.40;8.77;;;;;;;4.18;48.76;96288.66;5042815;28;20290;-69
2024/01/15 04:51:29;;;;;;;18.00;8.80;;;;;;;4.13;48.56;96296.84;5038161;28;20207;-69
2024/01/15 04:53:54;;;;;;;17.27;8.73;;;;;;;4.20;48.16;96293.69;5032331;28;20644;-70
2024/01/15 04:56:20;;;;;;;17.63;8.87;;;;;;;4.10;48.71;96302.28;5046604;28;20207;-69
2024/01/15 04:58:46;;;;;;;16.40;8.57;;;;;;;4.14;48.78;96298.47;5055486;28;20214;-69
2024/01/15 05:01:11;;;;;;;18.70;8.90;;;;;;;3.95;49.02;96295.84;5048533;28;20189;-70
2024/01/15 05:03:37;;;;;;;21.43;9.40;;;;;;;4.09;48.79;96292.88;5043011;28;20465;-70
2024/01/15 05:06:03;;;;;;;23.10;9.77;;;;;;;4.19;49.41;96297.22;5056952;28;20254;-70
2024/01/15 05:08:28;;;;;;;16.10;9.57;;;;;;;4.24;49.44;96292.47;5041748;28;20206;-69
2024/01/15 05:10:53;;;;;;;26.00;10.50;;;;;;;4.23;48.98;96290.84;5041636;28;20235;-71
2024/01/15 05:13:19;;;;;;;20.67;10.87;;;;;;;4.12;49.34;96289.16;5041654;28;20183;-70
2024/01/15 05:15:44;;;;;;;20.07;10.33;;;;;;;4.04;49.95;96289.84;5049723;28;20217;-69
2024/01/15 05:18:10;;;;;;;21.43;9.40;;;;;;;3.74;50.74;96290.72;5040574;28;20244;-68
2024/01/15 05:20:35;;;;;;;17.30;9.90;;;;;;;3.68;51.53;96287.72;5036671;28;20559;-69
2024/01/15 05:23:01;;;;;;;19.20;8.93;;;;;;;3.78;50.91;96289.53;5037734;28;20222;-70
2024/01/15 05:25:26;;;;;;;20.83;9.93;;;;;;;3.77;50.35;96283.53;5036625;28;20186;-70
2024/01/15 05:27:51;;;;;;;17.97;8.60;;;;;;;3.74;50.81;96275.19;5029203;28;20290;-68
2024/01/15 05:30:17;;;;;;;21.83;9.30;;;;;;;3.73;50.37;96283.91;5038508;28;20214;-69
2024/01/15 05:32:42;;;;;;;19.00;9.40;;;;;;;3.73;50.46;96279.56;5043332;28;20171;-70
2024/01/15 05:35:08;;;;;;;16.97;8.83;;;;;;;3.64;50.81;96270.78;5038557;28;20199;-69
2024/01/15 05:37:33;;;;;;;20.87;10.10;;;;;;;3.68;50.79;96277.34;5029334;28;20598;-68
2024/01/15 05:39:59;;;;;;;16.60;8.67;;;;;;;3.71;50.92;96268.50;5045175;28;20183;-68
2024/01/15 05:42:24;;;;;;;20.23;9.97;;;;;;;3.58;51.28;96275.69;5038821;28;20659;-69
2024/01/15 05:44:50;;;;;;;20.00;8.70;;;;;;;3.67;50.72;96262.75;5050517;28;20207;-70
2024/01/15 05:47:15;;;;;;;19.80;8.93;;;;;;;3.58;50.93;96252.34;5043746;28;20222;-73
2024/01/15 05:49:41;;;;;;;17.93;9.30;;;;;;;3.57;50.87;96253.31;5038966;28;20206;-69
2024/01/15 05:52:06;;;;;;;18.40;9.17;;;;;;;3.72;51.19;96259.75;5045036;28;20270;-70
2024/01/15 05:54:32;;;;;;;20.47;9.53;;;;;;;3.78;50.32;96255.81;5036690;28;20185;-69
2024/01/15 05:56:57;;;;;;;17.40;9.37;;;;;;;3.87;50.56;96265.38;5032041;28;20249;-69
2024/01/15 05:59:23;;;;;;;17.80;8.83;;;;;;;3.88;50.11;96255.84;5049972;28;20206;-69
2024/01/15 06:01:48;;;;;;;15.87;8.80;;;;;;;3.86;50.19;96260.34;5037516;28;20195;-69
2024/01/15 06:04:13;;;;;;;16.37;9.20;;;;;;;3.80;50.36;96261.69;5036569;28;20241;-69
2024/01/15 06:06:39;;;;;;;18.47;9.60;;;;;;;3.94;49.73;96263.06;5039303;28;20183;-68
2024/01/15 06:09:08;;;;;;;17.40;8.73;;;;;;;4.01;49.55;96259.00;5040846;28;20260;-67
2024/01/15 06:11:34;;;;;;;17.30;7.80;;;;;;;4.04;49.23;96248.34;5042053;28;20258;-70
2024/01/15 06:14:00;;;;;;;14.90;8.00;;;;;;;4.08;49.73;96249.72;5034714;28;20437;-69
2024/01/15 06:16:25;;;;;;;15.13;8.90;;;;;;;4.06;49.53;96254.22;5045460;28;20762;-69
2024/01/15 06:18:51;;;;;;;12.47;7.83;;;;;;;3.94;49.45;96256.13;5045537;28;20211;-70
2024/01/15 06:21:16;;;;;;;20.53;9.07;;;;;;;3.81;50.03;96252.97;5031147;28;20271;-68
2024/01/15 06:23:42;;;;;;;16.43;8.27;;;;;;;3.94;49.52;96256.13;5048224;28;20202;-69
2024/01/15 06:26:08;;;;;;;15.00;8.10;;;;;;;3.97;49.45;96249.84;5049239;28;20540;-69
2024/01/15 06:28:33;;;;;;;15.50;8.83;;;;;;;3.97;49.76;96244.66;5042499;28;20236;-70
2024/01/15 06:30:58;;;;;;;14.17;8.67;;;;;;;3.87;49.63;96246.44;5027322;28;20203;-70
2024/01/15 06:33:24;;;;;;;17.03;8.30;;;;;;;3.94;50.05;96235.41;5050803;28;20182;-70
2024/01/15 06:35:50;;;;;;;18.67;8.87;;;;;;;3.67;50.55;96230.81;5029393;28;20179;-70
2024/01/15 06:38:15;;;;;;;19.00;9.50;;;;;;;3.86;50.71;96234.41;5030255;28;20207;-69
2024/01/15 06:40:45;;;;;;;17.97;8.63;;;;;;;3.83;50.48;96223.38;5035322;28;20998;-70
2024/01/15 06:43:15;;;;;;;19.13;9.20;;;;;;;3.77;50.00;96228.25;5035593;28;20199;-70
2024/01/15 06:45:40;;;;;;;18.23;8.50;;;;;;;3.82;50.09;96221.72;5040837;28;20452;-69
2024/01/15 06:48:07;;;;;;;18.10;9.20;;;;;;;3.72;50.11;96213.13;5030694;28;20553;-71
2024/01/15 06:50:32;;;;;;;18.13;8.50;;;;;;;3.75;50.34;96212.84;5040330;28;20175;-67
2024/01/15 06:52:58;;;;;;;19.80;9.13;;;;;;;3.80;50.20;96212.44;5039144;28;20492;-70
2024/01/15 06:55:23;;;;;;;18.70;9.20;;;;;;;3.69;50.12;96210.78;5050509;28;20599;-69
2024/01/15 06:57:49;;;;;;;17.90;9.13;;;;;;;3.87;49.80;96210.13;5042246;28;20206;-66
2024/01/15 07:00:15;;;;;;;19.00;8.90;;;;;;;3.88;49.28;96222.97;5045087;28;20171;-70
2024/01/15 07:02:41;;;;;;;14.67;8.17;;;;;;;3.81;49.93;96220.09;5042093;28;20266;-67
2024/01/15 07:05:07;;;;;;;12.60;7.40;;;;;;;3.81;49.81;96220.09;5033615;28;21030;-70
2024/01/15 07:07:32;;;;;;;15.20;8.17;;;;;;;3.76;49.27;96217.09;5035517;28;20184;-67
2024/01/15 07:09:58;;;;;;;16.40;8.40;;;;;;;3.69;49.88;96227.16;5037220;28;20234;-69
2024/01/15 07:12:23;;;;;;;15.27;8.10;;;;;;;3.63;50.18;96232.88;5045357;28;20183;-68
2024/01/15 07:14:49;;;;;;;14.73;8.23;;;;;;;3.51;50.61;96228.75;5050568;28;20180;-70
2024/01/15 07:17:15;;;;;;;14.73;8.00;;;;;;;3.50;50.66;96232.28;5038796;28;20203;-69
2024/01/15 07:19:41;;;;;;;16.30;8.60;;;;;;;3.58;50.58;96223.84;5050816;28;20680;-68
2024/01/15 07:22:06;;;;;;;19.83;8.03;;;;;;;3.40;50.57;96229.69;4996729;28;20582;-68
2024/01/15 07:24:34;;;;;;;17.37;9.00;;;;;;;3.51;50.25;96228.75;5040504;28;20452;-69
2024/01/15 07:26:59;;;;;;;15.13;8.23;;;;;;;3.33;50.79;96238.91;5037323;28;20195;-69
2024/01/15 07:29:25;;;;;;;18.37;9.53;;;;;;;3.50;50.58;96234.88;5046559;28;20555;-70
2024/01/15 07:31:51;;;;;;;16.80;8.77;;;;;;;3.48;50.30;96232.44;5035664;28;20190;-69
2024/01/15 07:34:17;;;;;;;15.50;9.10;;;;;;;3.58;50.29;96237.66;5045586;28;20187;-69
2024/01/15 07:36:44;;;;;;;26.30;9.27;;;;;;;3.47;50.31;96225.59;5043383;28;20921;-69
2024/01/15 07:39:10;;;;;;;18.83;9.57;;;;;;;3.54;50.27;96229.28;5047783;28;20541;-69
2024/01/15 07:41:35;;;;;;;18.47;8.77;;;;;;;3.58;50.13;96234.22;5051730;28;21063;-69
2024/01/15 07:44:01;;;;;;;17.60;9.10;;;;;;;3.68;50.14;96235.91;5045504;28;20318;-69
2024/01/15 07:46:26;;;;;;;15.70;8.73;;;;;;;3.74;49.69;96229.34;5042836;28;20187;-69
2024/01/15 07:48:56;;;;;;;16.23;8.40;;;;;;;3.77;48.56;96233.44;5055192;28;20261;-70
2024/01/15 07:51:24;;;;;;;16.47;8.80;;;;;;;3.82;49.29;96221.72;5040143;28;20625;-69
2024/01/15 07:53:50;;;;;;;16.37;8.40;;;;;;;3.96;48.16;96227.47;5052393;28;20444;-69
2024/01/15 07:56:16;;;;;;;14.97;8.00;;;;;;;3.98;47.77;96235.94;5045652;28;20426;-69
2024/01/15 07:58:42;;;;;;;13.30;7.40;;;;;;;3.88;48.39;96230.72;5054954;28;20428;-70
2024/01/15 08:01:07;;;;;;;14.53;7.50;;;;;;;3.96;47.59;96228.31;5054153;28;20179;-68
2024/01/15 08:03:33;;;;;;;13.90;7.50;;;;;;;3.81;48.10;96235.63;5053576;28;20676;-67
2024/01/15 08:05:59;;;;;;;12.93;7.80;;;;;;;3.92;48.27;96232.13;5050730;28;20175;-67
2024/01/15 08:08:25;;;;;;;16.30;8.47;;;;;;;3.96;48.37;96235.25;5050155;28;20198;-70
2024/01/15 08:10:52;;;;;;;14.00;8.70;;;;;;;4.13;47.48;96239.78;5056611;28;20166;-69
2024/01/15 08:13:18;;;;;;;20.00;9.67;;;;;;;4.06;47.23;96232.69;5059850;28;20428;-69
2024/01/15 08:15:43;;;;;;;15.73;9.10;;;;;;;4.14;47.81;96246.59;5050185;28;20441;-68
2024/01/15 08:18:09;;;;;;;15.63;7.33;;;;;;;4.24;46.81;96245.78;5055657;28;20202;-71
2024/01/15 08:20:34;;;;;;;16.47;8.37;;;;;;;4.28;47.34;96244.56;5048873;28;20197;-69
2024/01/15 08:23:00;;;;;;;14.50;7.30;;;;;;;4.26;46.81;96238.69;5050510;28;20640;-69
2024/01/15 08:25:25;;;;;;;13.80;7.93;;;;;;;4.06;46.91;96241.25;5048033;28;20182;-69
2024/01/15 08:27:52;;;;;;;20.10;7.03;;;;;;;4.15;46.80;96240.47;5051162;28;20187;-68
2024/01/15 08:30:18;;;;;;;14.83;8.10;;;;;;;4.15;46.87;96248.25;5050581;28;20194;-69
2024/01/15 08:32:44;;;;;;;15.70;7.57;;;;;;;4.25;46.77;96242.25;5064013;28;20430;-69
2024/01/15 08:35:10;;;;;;;16.13;8.10;;;;;;;4.30;46.58;96240.88;5059573;28;20780;-70
2024/01/15 08:37:36;;;;;;;16.93;8.23;;;;;;;4.33;46.87;96228.59;5057916;28;20424;-67
2024/01/15 08:40:03;;;;;;;14.70;7.50;;;;;;;4.33;47.03;96219.03;5063820;28;20422;-69
2024/01/15 08:42:28;;;;;;;13.50;7.00;;;;;;;4.44;46.60;96221.47;5053038;28;20224;-68
2024/01/15 08:44:54;;;;;;;13.63;7.60;;;;;;;4.44;46.77;96231.84;5051790;28;20513;-69
2024/01/15 08:47:19;;;;;;;11.07;6.80;;;;;;;4.54;45.70;96229.25;5049126;28;20263;-68
2024/01/15 08:49:46;;;;;;;10.93;6.70;;;;;;;4.50;46.36;96225.28;5048406;28;20766;-69
2024/01/15 08:52:11;;;;;;;12.10;7.20;;;;;;;4.59;45.84;96234.03;5045827;28;20175;-69
2024/01/15 08:54:36;;;;;;;14.63;7.17;;;;;;;4.59;45.00;96234.03;5053648;28;20614;-70
2024/01/15 08:57:02;;;;;;;12.83;6.57;;;;;;;4.65;45.35;96227.47;5054231;28;20577;-69
2024/01/15 08:59:28;;;;;;;13.57;6.63;;;;;;;4.65;44.95;96235.25;5044168;28;20217;-69
2024/01/15 09:01:53;;;;;;;11.20;5.87;;;;;;;4.72;45.21;96234.56;5043920;28;20202;-69
2024/01/15 09:04:19;;;;;;;11.13;5.80;;;;;;;4.66;44.58;96229.94;5038971;28;20727;-67
2024/01/15 09:06:46;;;;;;;11.40;6.30;;;;;;;4.69;44.47;96229.63;5040666;28;20175;-68
2024/01/15 09:09:12;;;;;;;10.10;5.90;;;;;;;4.81;45.00;96232.06;5043279;28;20199;-71
2024/01/15 09:11:38;;;;;;;17.97;5.90;;;;;;;4.88;44.66;96230.56;5034487;28;20496;-69
2024/01/15 09:14:03;;;;;;;8.77;5.30;;;;;;;4.91;44.13;96217.31;5020240;28;20422;-69
2024/01/15 09:16:29;;;;;;;9.53;5.50;;;;;;;4.91;44.11;96227.69;5033474;28;20210;-68
2024/01/15 09:18:56;;;;;;;16.23;5.03;;;;;;;4.94;44.28;96219.59;5043135;28;20202;-69
2024/01/15 09:21:22;;;;;;;10.80;5.83;;;;;;;4.92;44.37;96216.31;5044267;28;20186;-70
2024/01/15 09:23:47;;;;;;;9.40;4.53;;;;;;;4.98;44.07;96214.97;5047194;28;20457;-70
2024/01/15 09:26:13;;;;;;;10.20;5.90;;;;;;;4.96;44.27;96196.91;5054682;28;20187;-70
2024/01/15 09:28:38;;;;;;;9.07;4.90;;;;;;;4.98;43.92;96202.78;5041702;28;20254;-68
2024/01/15 09:31:04;;;;;;;12.43;5.23;;;;;;;4.85;43.77;96202.28;5043478;28;20183;-70
2024/01/15 09:33:29;;;;;;;9.00;4.97;;;;;;;4.90;44.25;96189.69;5045855;28;20188;-69
2024/01/15 09:35:55;;;;;;;8.57;4.50;;;;;;;4.90;43.98;96179.31;5039800;28;20762;-69
2024/01/15 09:38:20;;;;;;;9.07;4.90;;;;;;;4.86;44.13;96180.56;5048264;28;20206;-70
2024/01/15 09:40:46;;;;;;;7.50;4.67;;;;;;;4.86;44.71;96191.75;5039321;28;20713;-68
2024/01/15 09:43:13;;;;;;;11.47;5.97;;;;;;;4.76;44.33;96199.56;5025057;28;20695;-70
2024/01/15 09:45:39;;;;;;;12.47;5.13;;;;;;;4.96;44.07;96194.31;5036849;28;20426;-69
2024/01/15 09:48:05;;;;;;;7.60;5.10;;;;;;;5.07;44.27;96199.34;5039165;28;20493;-68
2024/01/15 09:50:31;;;;;;;14.67;5.33;;;;;;;4.98;44.43;96197.59;5037345;28;20680;-69
2024/01/15 09:52:57;;;;;;;8.20;4.90;;;;;;;4.86;44.51;96196.94;5036438;28;20417;-67
2024/01/15 09:55:23;;;;;;;8.83;5.10;;;;;;;5.03;44.25;96190.22;5057524;28;20186;-69
2024/01/15 09:57:50;;;;;;;7.73;5.17;;;;;;;5.15;44.18;96195.22;5042561;28;20875;-69
2024/01/15 10:00:18;;;;;;;10.40;5.13;;;;;;;4.95;44.62;96195.28;5056988;28;20742;-69
2024/01/15 10:02:44;;;;;;;15.50;5.53;;;;;;;4.97;44.47;96195.94;5055891;28;20456;-69
2024/01/15 10:05:10;;;;;;;11.80;6.00;;;;;;;5.08;44.04;96192.38;5040289;28;20472;-69
2024/01/15 10:07:36;;;;;;;11.30;5.47;;;;;;;4.96;44.09;96176.13;5039991;28;20194;-68
2024/01/15 10:10:03;;;;;;;13.87;5.63;;;;;;;4.99;44.30;96173.25;5047091;28;20291;-69
2024/01/15 10:12:28;;;;;;;14.27;5.30;;;;;;;5.10;44.27;96176.63;5044514;28;20424;-69
2024/01/15 10:14:54;;;;;;;10.50;5.27;;;;;;;5.13;44.09;96178.97;5060594;28;20406;-69
2024/01/15 10:17:19;;;;;;;9.17;5.33;;;;;;;5.20;44.73;96174.81;5039411;28;20295;-68
2024/01/15 10:19:46;;;;;;;10.80;5.87;;;;;;;5.05;44.22;96171.88;5041016;28;20207;-68
2024/01/15 10:22:13;;;;;;;12.50;7.23;;;;;;;5.11;44.68;96175.69;5036066;28;20187;-69
2024/01/15 10:24:40;;;;;;;8.90;5.30;;;;;;;4.84;44.32;96166.88;5044175;28;20526;-68
2024/01/15 10:27:10;;;;;;;14.93;5.33;;;;;;;4.90;44.75;96169.72;5042907;28;20434;-70
2024/01/15 10:29:36;;;;;;;11.07;5.87;;;;;;;5.10;44.61;96167.09;5046741;28;20453;-68
2024/01/15 10:32:03;;;;;;;12.50;4.77;;;;;;;5.10;43.88;96167.09;5045607;28;20477;-70
2024/01/15 10:34:30;;;;;;;9.63;5.27;;;;;;;5.12;44.09;96162.53;5036107;28;20172;-68
2024/01/15 10:36:55;;;;;;;12.47;5.80;;;;;;;5.01;44.83;96160.13;5038448;28;20422;-68
2024/01/15 10:39:22;;;;;;;14.13;4.70;;;;;;;4.95;44.91;96164.13;5035015;28;20866;-68
2024/01/15 10:41:47;;;;;;;8.30;5.07;;;;;;;4.92;45.11;96149.66;5034374;28;20664;-68
2024/01/15 10:44:13;;;;;;;11.90;4.93;;;;;;;5.00;44.72;96148.94;5048022;28;20457;-69
2024/01/15 10:46:39;;;;;;;10.00;5.47;;;;;;;5.12;44.92;96149.56;5051632;28;20202;-68
2024/01/15 10:49:04;;;;;;;13.23;5.57;;;;;;;5.00;44.97;96148.94;5039802;28;20664;-68
2024/01/15 10:51:30;;;;;;;8.60;5.07;;;;;;;5.00;45.12;96138.53;5032528;28;20450;-69
2024/01/15 10:53:57;;;;;;;9.07;5.60;;;;;;;5.06;44.79;96135.34;5037545;28;20260;-67
2024/01/15 10:56:23;;;;;;;10.63;5.53;;;;;;;4.82;45.84;96146.28;5049795;28;20187;-70
2024/01/15 10:58:50;;;;;;;11.00;5.97;;;;;;;4.86;45.38;96144.19;5044909;28;20446;-67
2024/01/15 11:01:16;;;;;;;11.57;5.70;;;;;;;4.85;46.09;96145.97;5052208;28;20953;-71
2024/01/15 11:03:42;;;;;;;11.03;5.37;;;;;;;5.02;45.92;96141.81;5058909;28;20461;-70
2024/01/15 11:06:20;;;;;;;8.50;5.90;;;;;;;5.21;45.49;96137.47;5057413;28;20441;-69
2024/01/15 11:08:52;;;;;;;10.97;5.07;;;;;;;5.16;45.60;96143.13;5042256;28;20449;-70
2024/01/15 11:11:17;;;;;;;6.70;4.77;;;;;;;5.25;45.25;96136.25;5058437;28;20425;-69
2024/01/15 11:13:44;;;;;;;9.83;5.43;;;;;;;5.16;45.96;96129.31;5038874;28;20944;-70
2024/01/15 11:16:14;;;;;;;10.47;5.53;;;;;;;5.00;46.94;96140.31;5050974;28;20206;-68
2024/01/15 11:18:41;;;;;;;12.27;5.33;;;;;;;5.05;47.86;96125.13;5050613;28;20446;-70
2024/01/15 11:21:13;;;;;;;10.83;6.20;;;;;;;5.02;48.47;96128.84;5042012;28;20479;-70
2024/01/15 11:23:46;;;;;;;8.50;5.50;;;;;;;5.24;48.21;96124.22;5048290;28;21672;-70
2024/01/15 11:26:38;;;;;;;12.20;6.20;;;;;;;5.23;47.97;96127.75;5056366;28;20421;-72
2024/01/15 11:29:05;;;;;;;10.60;6.23;;;;;;;5.28;48.18;96112.56;5049834;28;20438;-70